sensor_id;sensor_type;location;lat;lon;timestamp;P1;durP1;ratioP1;P2;durP2;ratioP2
9094;SDS011;4583;49.796;9.902;2022-11-15T00:01:40;12.33;;;7.03;;
9094;SDS011;4583;49.796;9.902;2022-11-15T00:11:42;15.07;;;7.33;;
9094;SDS011;4583;49.796;9.902;2022-11-15T00:21:44;12.67;;;7.93;;
9094;SDS011;4583;49.796;9.902;2022-11-15T00:31:45;12.43;;;7.80;;
9094;SDS011;4583;49.796;9.902;2022-11-15T00:41:47;16.93;;;8.00;;
9094;SDS011;4583;49.796;9.902;2022-11-15T00:51:49;12.73;;;7.97;;
9094;SDS011;4583;49.796;9.902;2022-11-15T01:01:50;16.60;;;7.87;;
9094;SDS011;4583;49.796;9.902;2022-11-15T01:11:52;13.73;;;6.97;;
9094;SDS011;4583;49.796;9.902;2022-11-15T01:21:54;17.03;;;7.20;;
9094;SDS011;4583;49.796;9.902;2022-11-15T01:31:55;12.80;;;6.47;;
9094;SDS011;4583;49.796;9.902;2022-11-15T01:41:57;12.53;;;6.30;;
9094;SDS011;4583;49.796;9.902;2022-11-15T01:51:59;15.40;;;7.40;;
9094;SDS011;4583;49.796;9.902;2022-11-15T02:02:03;14.57;;;6.80;;
9094;SDS011;4583;49.796;9.902;2022-11-15T02:12:05;12.00;;;6.60;;
9094;SDS011;4583;49.796;9.902;2022-11-15T02:32:37;13.20;;;7.03;;
9094;SDS011;4583;49.796;9.902;2022-11-15T02:42:50;15.60;;;7.40;;
9094;SDS011;4583;49.796;9.902;2022-11-15T02:53:15;15.67;;;7.00;;
9094;SDS011;4583;49.796;9.902;2022-11-15T03:03:34;10.87;;;6.67;;
9094;SDS011;4583;49.796;9.902;2022-11-15T03:13:59;11.63;;;6.70;;
9094;SDS011;4583;49.796;9.902;2022-11-15T03:24:11;10.93;;;6.73;;
9094;SDS011;4583;49.796;9.902;2022-11-15T03:44:30;9.43;;;6.10;;
9094;SDS011;4583;49.796;9.902;2022-11-15T03:54:48;10.97;;;6.40;;
9094;SDS011;4583;49.796;9.902;2022-11-15T04:05:00;9.23;;;5.77;;
9094;SDS011;4583;49.796;9.902;2022-11-15T04:15:09;10.93;;;6.67;;
9094;SDS011;4583;49.796;9.902;2022-11-15T04:25:13;9.63;;;6.73;;
9094;SDS011;4583;49.796;9.902;2022-11-15T04:35:19;8.10;;;5.97;;
9094;SDS011;4583;49.796;9.902;2022-11-15T04:45:21;9.40;;;7.00;;
9094;SDS011;4583;49.796;9.902;2022-11-15T04:55:23;9.00;;;6.20;;
9094;SDS011;4583;49.796;9.902;2022-11-15T05:05:24;8.33;;;5.73;;
9094;SDS011;4583;49.796;9.902;2022-11-15T05:15:26;10.60;;;5.93;;
9094;SDS011;4583;49.796;9.902;2022-11-15T05:25:27;8.97;;;6.10;;
9094;SDS011;4583;49.796;9.902;2022-11-15T05:35:30;8.60;;;6.27;;
9094;SDS011;4583;49.796;9.902;2022-11-15T05:45:38;8.73;;;5.73;;
9094;SDS011;4583;49.796;9.902;2022-11-15T05:55:39;11.93;;;6.50;;
9094;SDS011;4583;49.796;9.902;2022-11-15T06:05:41;12.10;;;6.70;;
9094;SDS011;4583;49.796;9.902;2022-11-15T06:15:43;11.70;;;6.43;;
9094;SDS011;4583;49.796;9.902;2022-11-15T06:25:45;13.77;;;7.13;;
9094;SDS011;4583;49.796;9.902;2022-11-15T06:35:46;10.60;;;6.80;;
9094;SDS011;4583;49.796;9.902;2022-11-15T06:45:48;17.27;;;7.40;;
9094;SDS011;4583;49.796;9.902;2022-11-15T06:55:50;16.10;;;7.67;;
9094;SDS011;4583;49.796;9.902;2022-11-15T07:05:56;22.53;;;7.93;;
9094;SDS011;4583;49.796;9.902;2022-11-15T07:16:07;24.80;;;8.27;;
9094;SDS011;4583;49.796;9.902;2022-11-15T07:26:11;17.93;;;8.67;;
9094;SDS011;4583;49.796;9.902;2022-11-15T07:36:13;31.90;;;9.27;;
9094;SDS011;4583;49.796;9.902;2022-11-15T07:46:14;24.93;;;8.93;;
9094;SDS011;4583;49.796;9.902;2022-11-15T07:56:16;31.37;;;9.80;;
9094;SDS011;4583;49.796;9.902;2022-11-15T08:06:18;21.87;;;8.97;;
9094;SDS011;4583;49.796;9.902;2022-11-15T08:16:20;22.90;;;9.67;;
9094;SDS011;4583;49.796;9.902;2022-11-15T08:26:21;19.03;;;9.23;;
9094;SDS011;4583;49.796;9.902;2022-11-15T08:36:23;16.93;;;8.70;;
9094;SDS011;4583;49.796;9.902;2022-11-15T08:46:25;16.10;;;9.27;;
9094;SDS011;4583;49.796;9.902;2022-11-15T08:56:27;21.07;;;9.90;;
9094;SDS011;4583;49.796;9.902;2022-11-15T09:06:29;23.57;;;9.43;;
9094;SDS011;4583;49.796;9.902;2022-11-15T09:16:31;16.30;;;10.50;;
9094;SDS011;4583;49.796;9.902;2022-11-15T09:26:33;21.30;;;11.53;;
9094;SDS011;4583;49.796;9.902;2022-11-15T09:36:34;45.93;;;23.47;;
9094;SDS011;4583;49.796;9.902;2022-11-15T09:46:44;32.00;;;16.67;;
9094;SDS011;4583;49.796;9.902;2022-11-15T09:57:12;14.30;;;8.20;;
9094;SDS011;4583;49.796;9.902;2022-11-15T10:07:37;11.30;;;6.97;;
9094;SDS011;4583;49.796;9.902;2022-11-15T10:33:39;10.07;;;6.70;;
9094;SDS011;4583;49.796;9.902;2022-11-15T10:43:41;11.30;;;6.70;;
9094;SDS011;4583;49.796;9.902;2022-11-15T10:53:43;14.77;;;7.33;;
9094;SDS011;4583;49.796;9.902;2022-11-15T11:03:59;13.03;;;6.90;;
9094;SDS011;4583;49.796;9.902;2022-11-15T11:14:11;12.77;;;6.93;;
9094;SDS011;4583;49.796;9.902;2022-11-15T11:34:58;19.77;;;8.90;;
9094;SDS011;4583;49.796;9.902;2022-11-15T11:55:32;18.27;;;9.33;;
9094;SDS011;4583;49.796;9.902;2022-11-15T12:05:48;19.30;;;8.97;;
9094;SDS011;4583;49.796;9.902;2022-11-15T12:16:08;17.50;;;8.50;;
9094;SDS011;4583;49.796;9.902;2022-11-15T12:26:25;19.80;;;8.30;;
9094;SDS011;4583;49.796;9.902;2022-11-15T12:36:39;19.43;;;8.80;;
9094;SDS011;4583;49.796;9.902;2022-11-15T12:56:45;21.77;;;9.80;;
9094;SDS011;4583;49.796;9.902;2022-11-15T13:07:07;21.20;;;11.60;;
9094;SDS011;4583;49.796;9.902;2022-11-15T13:27:52;21.40;;;9.63;;
9094;SDS011;4583;49.796;9.902;2022-11-15T13:38:05;24.00;;;9.87;;
9094;SDS011;4583;49.796;9.902;2022-11-15T13:48:07;19.73;;;9.77;;
9094;SDS011;4583;49.796;9.902;2022-11-15T13:58:11;24.77;;;9.23;;
9094;SDS011;4583;49.796;9.902;2022-11-15T14:28:44;21.47;;;9.57;;
9094;SDS011;4583;49.796;9.902;2022-11-15T14:38:46;29.17;;;9.77;;
9094;SDS011;4583;49.796;9.902;2022-11-15T14:48:48;21.13;;;9.37;;
9094;SDS011;4583;49.796;9.902;2022-11-15T14:58:53;22.57;;;10.57;;
9094;SDS011;4583;49.796;9.902;2022-11-15T15:08:56;37.13;;;12.27;;
9094;SDS011;4583;49.796;9.902;2022-11-15T15:18:58;20.70;;;10.03;;
9094;SDS011;4583;49.796;9.902;2022-11-15T15:28:59;16.80;;;10.60;;
9094;SDS011;4583;49.796;9.902;2022-11-15T15:39:01;13.30;;;7.80;;
9094;SDS011;4583;49.796;9.902;2022-11-15T15:49:03;15.73;;;7.57;;
9094;SDS011;4583;49.796;9.902;2022-11-15T15:59:05;19.77;;;8.37;;
9094;SDS011;4583;49.796;9.902;2022-11-15T16:09:08;15.70;;;8.10;;
9094;SDS011;4583;49.796;9.902;2022-11-15T16:19:16;17.73;;;9.70;;
9094;SDS011;4583;49.796;9.902;2022-11-15T16:29:18;18.47;;;9.73;;
9094;SDS011;4583;49.796;9.902;2022-11-15T16:39:19;18.50;;;9.90;;
9094;SDS011;4583;49.796;9.902;2022-11-15T16:49:21;17.63;;;9.70;;
9094;SDS011;4583;49.796;9.902;2022-11-15T16:59:23;18.33;;;10.13;;
9094;SDS011;4583;49.796;9.902;2022-11-15T17:09:25;15.57;;;9.67;;
9094;SDS011;4583;49.796;9.902;2022-11-15T17:19:26;24.87;;;12.03;;
9094;SDS011;4583;49.796;9.902;2022-11-15T17:29:29;21.67;;;11.37;;
9094;SDS011;4583;49.796;9.902;2022-11-15T17:39:30;20.57;;;11.53;;
9094;SDS011;4583;49.796;9.902;2022-11-15T17:49:32;26.97;;;14.87;;
9094;SDS011;4583;49.796;9.902;2022-11-15T17:59:38;29.27;;;12.47;;
9094;SDS011;4583;49.796;9.902;2022-11-15T18:09:39;23.50;;;13.23;;
9094;SDS011;4583;49.796;9.902;2022-11-15T18:19:44;19.03;;;11.03;;
9094;SDS011;4583;49.796;9.902;2022-11-15T18:29:46;20.67;;;11.97;;
9094;SDS011;4583;49.796;9.902;2022-11-15T18:39:47;28.70;;;13.17;;
9094;SDS011;4583;49.796;9.902;2022-11-15T18:49:54;20.17;;;12.03;;
9094;SDS011;4583;49.796;9.902;2022-11-15T18:59:58;16.73;;;10.20;;
9094;SDS011;4583;49.796;9.902;2022-11-15T19:10:00;15.53;;;9.60;;
9094;SDS011;4583;49.796;9.902;2022-11-15T19:20:01;17.03;;;11.57;;
9094;SDS011;4583;49.796;9.902;2022-11-15T19:30:03;18.87;;;12.20;;
9094;SDS011;4583;49.796;9.902;2022-11-15T19:40:05;16.07;;;9.63;;
9094;SDS011;4583;49.796;9.902;2022-11-15T19:50:08;16.93;;;9.10;;
9094;SDS011;4583;49.796;9.902;2022-11-15T20:00:10;13.87;;;9.30;;
9094;SDS011;4583;49.796;9.902;2022-11-15T20:10:11;13.50;;;9.17;;
9094;SDS011;4583;49.796;9.902;2022-11-15T20:20:19;13.47;;;8.80;;
9094;SDS011;4583;49.796;9.902;2022-11-15T20:30:21;20.07;;;9.97;;
9094;SDS011;4583;49.796;9.902;2022-11-15T20:40:23;13.20;;;7.90;;
9094;SDS011;4583;49.796;9.902;2022-11-15T20:50:25;10.60;;;8.00;;
9094;SDS011;4583;49.796;9.902;2022-11-15T21:00:43;11.17;;;7.93;;
9094;SDS011;4583;49.796;9.902;2022-11-15T21:10:48;12.87;;;8.63;;
9094;SDS011;4583;49.796;9.902;2022-11-15T21:21:17;18.63;;;9.07;;
9094;SDS011;4583;49.796;9.902;2022-11-15T21:31:19;15.10;;;9.27;;
9094;SDS011;4583;49.796;9.902;2022-11-15T21:41:20;13.27;;;8.20;;
9094;SDS011;4583;49.796;9.902;2022-11-15T21:51:22;15.03;;;8.20;;
9094;SDS011;4583;49.796;9.902;2022-11-15T22:01:25;12.50;;;7.40;;
9094;SDS011;4583;49.796;9.902;2022-11-15T22:11:46;11.10;;;7.60;;
9094;SDS011;4583;49.796;9.902;2022-11-15T22:21:47;9.20;;;6.90;;
9094;SDS011;4583;49.796;9.902;2022-11-15T22:31:49;8.53;;;7.20;;
9094;SDS011;4583;49.796;9.902;2022-11-15T22:41:51;11.03;;;6.67;;
9094;SDS011;4583;49.796;9.902;2022-11-15T22:51:53;9.40;;;7.17;;
9094;SDS011;4583;49.796;9.902;2022-11-15T23:01:55;8.83;;;6.87;;
9094;SDS011;4583;49.796;9.902;2022-11-15T23:11:57;10.17;;;7.20;;
9094;SDS011;4583;49.796;9.902;2022-11-15T23:22:18;12.20;;;7.93;;
9094;SDS011;4583;49.796;9.902;2022-11-15T23:32:38;12.53;;;7.73;;
9094;SDS011;4583;49.796;9.902;2022-11-15T23:42:58;11.83;;;8.07;;
9094;SDS011;4583;49.796;9.902;2022-11-15T23:53:00;13.37;;;8.23;;
